• Join FlightAware (Why Join?)
  • Login
  • US Flag 
08:46AM EDT


 

Airport Tracker/Info


-or-


 

Live Flight TrackerFlight Track Log ✈ N161PQ ✈ 01-May-2012 ✈ KHPN - KATL

Flight Track Log - Related Links

Times and Time Zones

All times are in EDT time to prevent confusion due to time zone crossing. See the N161PQ flight status page for this flight to view local times or setup timezone preferences in your user account.

Time Position Orientation Groundspeed Altitude Reporting Facility
EDT Latitude Longitude Course Direction KTS MPH feet Rate Location/Type
05:37PM 41.1000 -73.7500 255° West 177 204 2,900  Level New York TRACON
05:38PM 41.0833 -73.8333 242° Southwest 239 275 5,800 2,700 Climbing New York TRACON
05:39PM 41.0500 -73.9167 242° Southwest 275 316 8,400 2,880 Climbing New York TRACON
05:40PM 41.0167 -74.0000 237° Southwest 278 320 11,300 2,100 Climbing New York TRACON
05:41PM 40.9667 -74.1000 244° Southwest 333 383 12,700 1,500 Climbing New York TRACON
05:42PM 40.9167 -74.2333 239° Southwest 374 430 14,500 1,320 Climbing New York TRACON
05:45PM 40.7989 -74.4881 240° Southwest 391 450 17,000 780 Climbing New York Center
05:46PM 40.7494 -74.6006 240° Southwest 391 450 17,100 960 Climbing New York Center
05:47PM 40.6908 -74.7369 238° Southwest 391 450 19,000 1,740 Climbing New York Center
05:48PM 40.6325 -74.8619 241° Southwest 391 450 20,600 1,500 Climbing New York Center
05:49PM 40.5778 -74.9897 234° Southwest 391 450 22,100 1,440 Climbing New York Center
05:50PM 40.5067 -75.1164 229° Southwest 412 474 23,600 1,620 Climbing New York Center
05:51PM 40.4269 -75.2369 230° Southwest 442 509 25,300 1,560 Climbing New York Center
05:52PM 40.3494 -75.3600 231° Southwest 442 509 26,700 1,320 Climbing New York Center
05:53PM 40.2806 -75.4697 232° Southwest 447 514 28,000 1,260 Climbing New York Center
05:54PM 40.2133 -75.5819 237° Southwest 442 509 29,300 1,380 Climbing New York Center
05:55PM 40.1383 -75.7342 236° Southwest 427 491 30,800 1,260 Climbing New York Center
05:56PM 40.0769 -75.8547 232° Southwest 435 501 31,800 1,080 Climbing New York Center
05:57PM 39.9917 -75.9947 231° Southwest 455 524 33,000 960 Climbing New York Center
05:58PM 39.8558 -76.2106 231° Southwest 437 503 34,600 840 Climbing Washington Center
05:59PM 39.7800 -76.3314 231° Southwest 437 503 35,600 660 Climbing Washington Center
06:00PM 39.7044 -76.4519 229° Southwest 437 503 36,000 180 Climbing Washington Center
06:01PM 39.6158 -76.5856 229° Southwest 437 503 36,000  Level Washington Center
06:02PM 39.5378 -76.7028 229° Southwest 437 503 36,000  Level Washington Center
06:03PM 39.4594 -76.8200 230° Southwest 437 503 36,000  Level Washington Center
06:04PM 39.3831 -76.9367 230° Southwest 437 503 36,000  Level Washington Center
06:05PM 39.3047 -77.0586 229° Southwest 432 497 36,000  Level Washington Center
06:06PM 39.2261 -77.1750 229° Southwest 437 503 36,000  Level Washington Center
06:07PM 39.1472 -77.2911 229° Southwest 437 503 36,000  Level Washington Center
06:08PM 39.0686 -77.4069 229° Southwest 437 503 36,000  Level Washington Center
06:09PM 38.9917 -77.5200 230° Southwest 437 503 36,000  Level Washington Center
06:10PM 38.9106 -77.6458 228° Southwest 442 509 36,000  Level Washington Center
06:11PM 38.8378 -77.7503 229° Southwest 442 509 36,000  Level Washington Center
06:12PM 38.7519 -77.8756 228° Southwest 457 526 36,000  Level Washington Center
06:13PM 38.6683 -77.9953 229° Southwest 463 533 36,000  Level Washington Center
06:14PM 38.5867 -78.1175 229° Southwest 463 533 36,000  Level Washington Center
06:15PM 38.5050 -78.2369 229° Southwest 463 533 36,000  Level Washington Center
06:16PM 38.4208 -78.3583 229° Southwest 463 533 36,000  Level Washington Center
06:17PM 38.3389 -78.4772 231° Southwest 458 527 36,000  Level Washington Center
06:18PM 38.2564 -78.6061 229° Southwest 446 513 36,000  Level Washington Center
06:19PM 38.1739 -78.7269 228° Southwest 446 513 36,000  Level Washington Center
06:20PM 38.0894 -78.8447 228° Southwest 446 513 36,000  Level Washington Center
06:21PM 38.0158 -78.9497 229° Southwest 446 513 36,000  Level Washington Center
06:22PM 37.9375 -79.0619 228° Southwest 446 513 36,000  Level Washington Center
06:23PM 37.8592 -79.1717 228° Southwest 446 513 36,000  Level Washington Center
06:24PM 37.7808 -79.2808 228° Southwest 434 499 36,000  Level Washington Center
06:25PM 37.7000 -79.3925 226° Southwest 433 498 36,000  Level Washington Center
06:26PM 37.6131 -79.5061 228° Southwest 427 491 36,000  Level Washington Center
06:27PM 37.5431 -79.6044 226° Southwest 427 491 36,000  Level Washington Center
06:28PM 37.4533 -79.7228 229° Southwest 427 491 36,000  Level Washington Center
06:29PM 37.3744 -79.8361 227° Southwest 437 503 36,000  Level Washington Center
06:30PM 37.2933 -79.9464 227° Southwest 437 503 36,000  Level Washington Center
06:33PM 37.1014 -80.2003 228° Southwest 433 498 36,000  Level Atlanta Center
06:34PM 37.0175 -80.3164 227° Southwest 433 498 36,000  Level Atlanta Center
06:35PM 36.9372 -80.4239 225° Southwest 433 498 36,000  Level Atlanta Center
06:36PM 36.8608 -80.5208 226° Southwest 433 498 36,000  Level Atlanta Center
06:37PM 36.7764 -80.6308 228° Southwest 433 498 36,000  Level Atlanta Center
06:38PM 36.6900 -80.7511 225° Southwest 427 491 36,000  Level Atlanta Center
06:39PM 36.6053 -80.8578 227° Southwest 434 499 36,000  Level Atlanta Center
06:40PM 36.5225 -80.9697 227° Southwest 434 499 36,000  Level Atlanta Center
06:41PM 36.4397 -81.0814 235° Southwest 434 499 36,000  Level Atlanta Center
06:42PM 36.3697 -81.2075 238° Southwest 440 506 36,000  Level Atlanta Center
06:43PM 36.3039 -81.3361 237° Southwest 452 520 36,000  Level Atlanta Center
06:44PM 36.2356 -81.4647 232° Southwest 446 513 36,000  Level Atlanta Center
06:45PM 36.1589 -81.5881 230° Southwest 451 519 36,000  Level Atlanta Center
06:46PM 36.0797 -81.7033 238° Southwest 451 519 36,000  Level Atlanta Center
06:47PM 36.0133 -81.8336 227° Southwest 451 519 36,000  Level Atlanta Center
06:48PM 35.9278 -81.9461 223° Southwest 456 525 36,000 -60 Level Atlanta Center
06:49PM 35.8481 -82.0381 221° Southwest 450 518 35,900 -540 Descending Atlanta Center
06:50PM 35.7517 -82.1428 222° Southwest 456 525 35,000 -480 Descending Atlanta Center
06:51PM 35.6572 -82.2469 223° Southwest 461 531 35,000  Level Atlanta Center
06:52PM 35.5669 -82.3511 220° Southwest 456 525 35,000 -360 Level Atlanta Center
06:53PM 35.4722 -82.4500 220° Southwest 456 525 34,300 -960 Descending Atlanta Center
06:54PM 35.3775 -82.5461 219° Southwest 450 518 33,100 -1,260 Descending Atlanta Center
06:55PM 35.2722 -82.6497 220° Southwest 445 512 31,800 -1,080 Descending Atlanta Center
06:56PM 35.1733 -82.7506 220° Southwest 450 518 31,000 -420 Descending Atlanta Center
06:57PM 35.0742 -82.8511 220° Southwest 461 531 31,000 -60 Level Atlanta Center
06:58PM 34.9747 -82.9514 220° Southwest 476 548 30,900 -600 Descending Atlanta Center
06:59PM 34.8714 -83.0564 220° Southwest 478 550 29,900 -1,080 Descending Atlanta Center
07:00PM 34.7719 -83.1589 218° Southwest 478 550 28,800 -1,200 Descending Atlanta Center
07:01PM 34.6850 -83.2406 221° Southwest 462 532 27,500 -2,100 Descending Atlanta Center
07:02PM 34.5894 -83.3422 219° Southwest 431 496 24,600 -2,700 Descending Atlanta Center
07:03PM 34.4981 -83.4314 221° Southwest 421 484 22,200 -2,280 Descending Atlanta Center
07:04PM 34.4233 -83.5100 219° Southwest 416 479 20,100 -2,220 Descending Atlanta Center
07:05PM 34.3422 -83.5908 219° Southwest 401 461 17,800 -2,160 Descending Atlanta Center
07:06PM 34.2611 -83.6694 221° Southwest 378 435 15,800 -2,040 Descending Atlanta Center
07:07PM 34.1883 -83.7450 218° Southwest 365 420 13,800 -1,920 Descending Atlanta Center
07:08PM 34.1133 -83.8156 222° Southwest 355 409 12,000 -1,380 Descending Atlanta Center
07:09PM 34.0500 -83.8833 220° Southwest 278 320 11,000 -1,020 Descending Atlanta TRACON
07:10PM 33.9833 -83.9500 192° South 271 312 10,000 -900 Descending Atlanta TRACON
07:11PM 33.9167 -83.9667 180° South 273 314 9,200 -480 Descending Atlanta TRACON
07:12PM 33.8333 -83.9667 180° South 279 321 9,000 -420 Descending Atlanta TRACON
07:13PM 33.7667 -83.9667 184° South 272 313 8,500 -1,080 Descending Atlanta TRACON
07:14PM 33.6900 -83.9739 225° Southwest 277 319 7,000 -780 Descending Atlanta Center
07:15PM 33.6397 -84.0339 264° West 255 293 7,000 -540 Level Atlanta Center
07:16PM 33.6314 -84.1236 272° West 241 277 6,000 -600 Descending Atlanta Center
07:17PM 33.6333 -84.2000 270° West 229 264 5,900 -1,020 Descending Atlanta TRACON
07:18PM 33.6333 -84.2667 270° West 222 255 4,100 -1,800 Descending Atlanta TRACON
07:19PM 33.6333 -84.3333 270° West 204 235 2,300 -1,380 Descending Atlanta TRACON
07:20PM 33.6333 -84.4000 270° West 151 174 1,400 -900 Descending Atlanta TRACON